sensor_id;sensor_type;location;lat;lon;timestamp;P1;durP1;ratioP1;P2;durP2;ratioP2
49978;SDS011;35869;50.990;6.962;2023-12-20T00:02:21;19.02;;;13.70;;
49978;SDS011;35869;50.990;6.962;2023-12-20T00:07:21;22.88;;;14.60;;
49978;SDS011;35869;50.990;6.962;2023-12-20T00:12:21;24.50;;;17.13;;
49978;SDS011;35869;50.990;6.962;2023-12-20T00:17:21;25.30;;;16.77;;
49978;SDS011;35869;50.990;6.962;2023-12-20T00:22:22;22.48;;;14.75;;
49978;SDS011;35869;50.990;6.962;2023-12-20T00:27:22;15.73;;;12.02;;
49978;SDS011;35869;50.990;6.962;2023-12-20T00:32:22;17.48;;;10.40;;
49978;SDS011;35869;50.990;6.962;2023-12-20T00:37:22;15.43;;;9.27;;
49978;SDS011;35869;50.990;6.962;2023-12-20T00:42:22;8.80;;;7.50;;
49978;SDS011;35869;50.990;6.962;2023-12-20T00:47:23;8.85;;;6.07;;
49978;SDS011;35869;50.990;6.962;2023-12-20T00:52:23;8.88;;;7.00;;
49978;SDS011;35869;50.990;6.962;2023-12-20T00:57:23;11.52;;;6.95;;
49978;SDS011;35869;50.990;6.962;2023-12-20T01:02:24;8.40;;;6.05;;
49978;SDS011;35869;50.990;6.962;2023-12-20T01:07:24;9.63;;;6.80;;
49978;SDS011;35869;50.990;6.962;2023-12-20T01:12:24;8.60;;;5.57;;
49978;SDS011;35869;50.990;6.962;2023-12-20T01:17:24;10.80;;;7.60;;
49978;SDS011;35869;50.990;6.962;2023-12-20T01:22:24;12.85;;;6.72;;
49978;SDS011;35869;50.990;6.962;2023-12-20T01:27:25;7.97;;;6.68;;
49978;SDS011;35869;50.990;6.962;2023-12-20T01:32:25;10.23;;;6.47;;
49978;SDS011;35869;50.990;6.962;2023-12-20T01:37:25;8.85;;;6.47;;
49978;SDS011;35869;50.990;6.962;2023-12-20T01:42:25;10.75;;;7.38;;
49978;SDS011;35869;50.990;6.962;2023-12-20T01:47:26;14.23;;;10.05;;
49978;SDS011;35869;50.990;6.962;2023-12-20T01:52:26;16.57;;;10.10;;
49978;SDS011;35869;50.990;6.962;2023-12-20T01:57:27;15.23;;;10.10;;
49978;SDS011;35869;50.990;6.962;2023-12-20T02:02:27;17.50;;;9.57;;
49978;SDS011;35869;50.990;6.962;2023-12-20T02:07:28;14.93;;;9.43;;
49978;SDS011;35869;50.990;6.962;2023-12-20T02:12:30;17.95;;;9.35;;
49978;SDS011;35869;50.990;6.962;2023-12-20T02:17:31;17.52;;;9.30;;
49978;SDS011;35869;50.990;6.962;2023-12-20T02:27:32;13.60;;;8.15;;
49978;SDS011;35869;50.990;6.962;2023-12-20T02:32:32;23.80;;;9.00;;
49978;SDS011;35869;50.990;6.962;2023-12-20T02:37:33;13.75;;;9.13;;
49978;SDS011;35869;50.990;6.962;2023-12-20T02:42:33;21.23;;;9.03;;
49978;SDS011;35869;50.990;6.962;2023-12-20T02:47:33;18.38;;;9.00;;
49978;SDS011;35869;50.990;6.962;2023-12-20T02:52:33;9.98;;;6.13;;
49978;SDS011;35869;50.990;6.962;2023-12-20T02:57:34;13.50;;;6.00;;
49978;SDS011;35869;50.990;6.962;2023-12-20T03:02:34;13.15;;;4.72;;
49978;SDS011;35869;50.990;6.962;2023-12-20T03:07:36;18.40;;;4.60;;
49978;SDS011;35869;50.990;6.962;2023-12-20T03:12:37;12.15;;;4.55;;
49978;SDS011;35869;50.990;6.962;2023-12-20T03:17:37;9.85;;;4.60;;
49978;SDS011;35869;50.990;6.962;2023-12-20T03:22:37;15.13;;;5.00;;
49978;SDS011;35869;50.990;6.962;2023-12-20T03:27:37;9.75;;;4.78;;
49978;SDS011;35869;50.990;6.962;2023-12-20T03:32:38;8.77;;;4.70;;
49978;SDS011;35869;50.990;6.962;2023-12-20T03:37:38;17.93;;;6.33;;
49978;SDS011;35869;50.990;6.962;2023-12-20T03:42:38;8.27;;;3.92;;
49978;SDS011;35869;50.990;6.962;2023-12-20T03:47:39;12.18;;;4.78;;
49978;SDS011;35869;50.990;6.962;2023-12-20T03:52:39;7.55;;;4.00;;
49978;SDS011;35869;50.990;6.962;2023-12-20T03:57:39;16.20;;;4.93;;
49978;SDS011;35869;50.990;6.962;2023-12-20T04:02:39;10.98;;;5.72;;
49978;SDS011;35869;50.990;6.962;2023-12-20T04:07:41;8.82;;;4.53;;
49978;SDS011;35869;50.990;6.962;2023-12-20T04:12:41;15.85;;;5.20;;
49978;SDS011;35869;50.990;6.962;2023-12-20T04:17:41;15.18;;;4.57;;
49978;SDS011;35869;50.990;6.962;2023-12-20T04:22:41;10.38;;;4.45;;
49978;SDS011;35869;50.990;6.962;2023-12-20T04:27:41;11.75;;;5.30;;
49978;SDS011;35869;50.990;6.962;2023-12-20T04:32:42;13.68;;;5.57;;
49978;SDS011;35869;50.990;6.962;2023-12-20T04:37:42;15.45;;;6.38;;
49978;SDS011;35869;50.990;6.962;2023-12-20T04:42:42;20.33;;;5.70;;
49978;SDS011;35869;50.990;6.962;2023-12-20T04:47:42;26.45;;;6.70;;
49978;SDS011;35869;50.990;6.962;2023-12-20T04:52:42;13.75;;;5.53;;
49978;SDS011;35869;50.990;6.962;2023-12-20T04:57:43;13.23;;;5.90;;
49978;SDS011;35869;50.990;6.962;2023-12-20T05:02:43;15.25;;;5.93;;
49978;SDS011;35869;50.990;6.962;2023-12-20T05:07:43;9.27;;;4.10;;
49978;SDS011;35869;50.990;6.962;2023-12-20T05:12:44;13.10;;;5.73;;
49978;SDS011;35869;50.990;6.962;2023-12-20T05:17:44;10.88;;;5.65;;
49978;SDS011;35869;50.990;6.962;2023-12-20T05:22:44;10.20;;;4.45;;
49978;SDS011;35869;50.990;6.962;2023-12-20T05:27:44;12.38;;;5.93;;
49978;SDS011;35869;50.990;6.962;2023-12-20T05:32:45;10.77;;;5.93;;
49978;SDS011;35869;50.990;6.962;2023-12-20T05:37:45;12.50;;;6.32;;
49978;SDS011;35869;50.990;6.962;2023-12-20T05:42:45;17.00;;;5.38;;
49978;SDS011;35869;50.990;6.962;2023-12-20T05:47:46;19.08;;;5.47;;
49978;SDS011;35869;50.990;6.962;2023-12-20T05:52:46;11.57;;;5.10;;
49978;SDS011;35869;50.990;6.962;2023-12-20T05:57:46;10.40;;;4.83;;
49978;SDS011;35869;50.990;6.962;2023-12-20T06:02:46;15.82;;;5.18;;
49978;SDS011;35869;50.990;6.962;2023-12-20T06:07:47;21.73;;;6.18;;
49978;SDS011;35869;50.990;6.962;2023-12-20T06:12:47;12.27;;;4.43;;
49978;SDS011;35869;50.990;6.962;2023-12-20T06:17:47;12.60;;;5.50;;
49978;SDS011;35869;50.990;6.962;2023-12-20T06:22:47;12.43;;;6.07;;
49978;SDS011;35869;50.990;6.962;2023-12-20T06:27:48;11.85;;;5.53;;
49978;SDS011;35869;50.990;6.962;2023-12-20T06:32:48;21.15;;;6.70;;
49978;SDS011;35869;50.990;6.962;2023-12-20T06:37:48;11.52;;;4.97;;
49978;SDS011;35869;50.990;6.962;2023-12-20T06:42:49;10.07;;;5.37;;
49978;SDS011;35869;50.990;6.962;2023-12-20T06:47:49;11.80;;;4.85;;
49978;SDS011;35869;50.990;6.962;2023-12-20T06:52:50;10.15;;;4.63;;
49978;SDS011;35869;50.990;6.962;2023-12-20T06:57:50;17.88;;;5.38;;
49978;SDS011;35869;50.990;6.962;2023-12-20T07:02:50;13.02;;;5.90;;
49978;SDS011;35869;50.990;6.962;2023-12-20T07:07:51;14.23;;;5.40;;
49978;SDS011;35869;50.990;6.962;2023-12-20T07:12:51;12.65;;;5.43;;
49978;SDS011;35869;50.990;6.962;2023-12-20T07:17:51;14.18;;;4.57;;
49978;SDS011;35869;50.990;6.962;2023-12-20T07:22:51;13.70;;;4.97;;
49978;SDS011;35869;50.990;6.962;2023-12-20T07:27:52;11.57;;;4.88;;
49978;SDS011;35869;50.990;6.962;2023-12-20T07:32:52;15.50;;;5.45;;
49978;SDS011;35869;50.990;6.962;2023-12-20T07:37:52;9.07;;;5.28;;
49978;SDS011;35869;50.990;6.962;2023-12-20T07:42:52;15.10;;;5.50;;
49978;SDS011;35869;50.990;6.962;2023-12-20T07:47:52;11.00;;;4.63;;
49978;SDS011;35869;50.990;6.962;2023-12-20T07:52:53;11.55;;;5.28;;
49978;SDS011;35869;50.990;6.962;2023-12-20T07:57:53;10.05;;;5.55;;
49978;SDS011;35869;50.990;6.962;2023-12-20T08:02:53;12.10;;;5.63;;
49978;SDS011;35869;50.990;6.962;2023-12-20T08:07:53;12.43;;;5.25;;
49978;SDS011;35869;50.990;6.962;2023-12-20T08:12:53;9.40;;;4.80;;
49978;SDS011;35869;50.990;6.962;2023-12-20T08:17:54;13.50;;;5.30;;
49978;SDS011;35869;50.990;6.962;2023-12-20T08:22:54;10.27;;;5.07;;
49978;SDS011;35869;50.990;6.962;2023-12-20T08:27:54;14.45;;;5.35;;
49978;SDS011;35869;50.990;6.962;2023-12-20T08:32:54;13.25;;;4.80;;
49978;SDS011;35869;50.990;6.962;2023-12-20T08:37:55;12.23;;;5.07;;
49978;SDS011;35869;50.990;6.962;2023-12-20T08:42:55;11.88;;;5.13;;
49978;SDS011;35869;50.990;6.962;2023-12-20T08:47:56;13.73;;;5.47;;
49978;SDS011;35869;50.990;6.962;2023-12-20T08:52:56;8.68;;;5.25;;
49978;SDS011;35869;50.990;6.962;2023-12-20T08:57:56;21.25;;;5.65;;
49978;SDS011;35869;50.990;6.962;2023-12-20T09:02:56;15.15;;;5.03;;
49978;SDS011;35869;50.990;6.962;2023-12-20T09:07:57;16.52;;;5.53;;
49978;SDS011;35869;50.990;6.962;2023-12-20T09:12:57;17.15;;;6.05;;
49978;SDS011;35869;50.990;6.962;2023-12-20T09:17:57;11.85;;;3.97;;
49978;SDS011;35869;50.990;6.962;2023-12-20T09:22:57;12.25;;;4.20;;
49978;SDS011;35869;50.990;6.962;2023-12-20T09:27:58;10.93;;;4.55;;
49978;SDS011;35869;50.990;6.962;2023-12-20T09:33:05;10.57;;;4.60;;
49978;SDS011;35869;50.990;6.962;2023-12-20T09:38:05;9.13;;;4.80;;
49978;SDS011;35869;50.990;6.962;2023-12-20T09:43:10;10.02;;;4.22;;
49978;SDS011;35869;50.990;6.962;2023-12-20T09:48:13;12.75;;;4.35;;
49978;SDS011;35869;50.990;6.962;2023-12-20T09:53:15;13.63;;;3.90;;
49978;SDS011;35869;50.990;6.962;2023-12-20T10:03:16;7.78;;;3.80;;
49978;SDS011;35869;50.990;6.962;2023-12-20T10:08:21;19.10;;;4.70;;
49978;SDS011;35869;50.990;6.962;2023-12-20T10:13:21;10.05;;;3.80;;
49978;SDS011;35869;50.990;6.962;2023-12-20T10:18:21;9.02;;;4.50;;
49978;SDS011;35869;50.990;6.962;2023-12-20T10:23:22;15.45;;;4.65;;
49978;SDS011;35869;50.990;6.962;2023-12-20T10:28:22;15.13;;;4.00;;
49978;SDS011;35869;50.990;6.962;2023-12-20T10:33:23;10.98;;;4.57;;
49978;SDS011;35869;50.990;6.962;2023-12-20T10:38:24;7.90;;;3.92;;
49978;SDS011;35869;50.990;6.962;2023-12-20T10:43:25;10.80;;;3.88;;
49978;SDS011;35869;50.990;6.962;2023-12-20T10:48:27;14.43;;;4.70;;
49978;SDS011;35869;50.990;6.962;2023-12-20T10:53:29;14.40;;;5.30;;
49978;SDS011;35869;50.990;6.962;2023-12-20T10:58:29;8.13;;;3.17;;
49978;SDS011;35869;50.990;6.962;2023-12-20T11:03:32;7.88;;;3.83;;
49978;SDS011;35869;50.990;6.962;2023-12-20T11:08:51;6.03;;;3.58;;
49978;SDS011;35869;50.990;6.962;2023-12-20T11:14:05;14.93;;;4.25;;
49978;SDS011;35869;50.990;6.962;2023-12-20T11:19:08;6.97;;;3.97;;
49978;SDS011;35869;50.990;6.962;2023-12-20T11:24:11;9.10;;;3.60;;
49978;SDS011;35869;50.990;6.962;2023-12-20T11:29:30;9.88;;;3.88;;
49978;SDS011;35869;50.990;6.962;2023-12-20T11:34:31;10.15;;;3.63;;
49978;SDS011;35869;50.990;6.962;2023-12-20T11:39:33;11.05;;;3.10;;
49978;SDS011;35869;50.990;6.962;2023-12-20T11:44:33;6.75;;;3.63;;
49978;SDS011;35869;50.990;6.962;2023-12-20T11:49:33;12.63;;;5.07;;
49978;SDS011;35869;50.990;6.962;2023-12-20T11:54:36;9.65;;;3.65;;
49978;SDS011;35869;50.990;6.962;2023-12-20T11:59:48;10.02;;;3.38;;
49978;SDS011;35869;50.990;6.962;2023-12-20T12:04:49;7.15;;;3.80;;
49978;SDS011;35869;50.990;6.962;2023-12-20T12:09:51;8.90;;;3.58;;
49978;SDS011;35869;50.990;6.962;2023-12-20T12:15:01;8.95;;;3.80;;
49978;SDS011;35869;50.990;6.962;2023-12-20T12:20:06;7.57;;;3.40;;
49978;SDS011;35869;50.990;6.962;2023-12-20T12:25:10;11.32;;;4.05;;
49978;SDS011;35869;50.990;6.962;2023-12-20T12:30:11;15.55;;;4.65;;
49978;SDS011;35869;50.990;6.962;2023-12-20T12:35:13;11.33;;;4.73;;
49978;SDS011;35869;50.990;6.962;2023-12-20T12:40:15;10.98;;;4.72;;
49978;SDS011;35869;50.990;6.962;2023-12-20T12:45:16;7.53;;;3.95;;
49978;SDS011;35869;50.990;6.962;2023-12-20T12:50:17;18.57;;;4.20;;
49978;SDS011;35869;50.990;6.962;2023-12-20T12:55:17;7.23;;;4.10;;
49978;SDS011;35869;50.990;6.962;2023-12-20T13:00:17;12.07;;;5.28;;
49978;SDS011;35869;50.990;6.962;2023-12-20T13:05:18;8.47;;;4.20;;
49978;SDS011;35869;50.990;6.962;2023-12-20T13:10:19;9.23;;;4.20;;
49978;SDS011;35869;50.990;6.962;2023-12-20T13:15:21;10.13;;;4.07;;
49978;SDS011;35869;50.990;6.962;2023-12-20T13:20:41;11.50;;;4.80;;
49978;SDS011;35869;50.990;6.962;2023-12-20T13:25:41;11.20;;;5.83;;
49978;SDS011;35869;50.990;6.962;2023-12-20T13:30:41;9.25;;;4.28;;
49978;SDS011;35869;50.990;6.962;2023-12-20T13:35:42;11.85;;;4.65;;
49978;SDS011;35869;50.990;6.962;2023-12-20T13:40:42;10.48;;;4.68;;
49978;SDS011;35869;50.990;6.962;2023-12-20T13:45:46;9.83;;;4.97;;
49978;SDS011;35869;50.990;6.962;2023-12-20T13:50:52;5.68;;;4.00;;
49978;SDS011;35869;50.990;6.962;2023-12-20T13:55:52;10.60;;;4.33;;
49978;SDS011;35869;50.990;6.962;2023-12-20T14:00:52;7.47;;;3.90;;
49978;SDS011;35869;50.990;6.962;2023-12-20T14:05:52;10.20;;;4.18;;
49978;SDS011;35869;50.990;6.962;2023-12-20T14:10:53;10.13;;;3.77;;
49978;SDS011;35869;50.990;6.962;2023-12-20T14:15:53;5.43;;;3.30;;
49978;SDS011;35869;50.990;6.962;2023-12-20T14:20:53;12.93;;;4.22;;
49978;SDS011;35869;50.990;6.962;2023-12-20T14:25:53;9.43;;;4.30;;
49978;SDS011;35869;50.990;6.962;2023-12-20T14:30:54;7.38;;;5.20;;
49978;SDS011;35869;50.990;6.962;2023-12-20T14:35:54;8.25;;;3.50;;
49978;SDS011;35869;50.990;6.962;2023-12-20T14:40:54;10.50;;;4.03;;
49978;SDS011;35869;50.990;6.962;2023-12-20T14:45:55;9.90;;;4.15;;
49978;SDS011;35869;50.990;6.962;2023-12-20T14:50:56;5.70;;;3.65;;
49978;SDS011;35869;50.990;6.962;2023-12-20T14:55:57;11.85;;;3.70;;
49978;SDS011;35869;50.990;6.962;2023-12-20T15:00:58;11.40;;;4.20;;
49978;SDS011;35869;50.990;6.962;2023-12-20T15:06:00;19.20;;;4.95;;
49978;SDS011;35869;50.990;6.962;2023-12-20T15:11:01;10.63;;;4.28;;
49978;SDS011;35869;50.990;6.962;2023-12-20T15:16:02;7.50;;;4.32;;
49978;SDS011;35869;50.990;6.962;2023-12-20T15:21:02;13.67;;;4.73;;
49978;SDS011;35869;50.990;6.962;2023-12-20T15:26:02;9.87;;;4.03;;
49978;SDS011;35869;50.990;6.962;2023-12-20T15:31:04;10.27;;;4.70;;
49978;SDS011;35869;50.990;6.962;2023-12-20T15:36:04;7.63;;;3.92;;
49978;SDS011;35869;50.990;6.962;2023-12-20T15:41:05;5.97;;;3.83;;
49978;SDS011;35869;50.990;6.962;2023-12-20T15:46:05;11.50;;;3.92;;
49978;SDS011;35869;50.990;6.962;2023-12-20T15:51:06;6.93;;;5.05;;
49978;SDS011;35869;50.990;6.962;2023-12-20T15:56:07;11.65;;;4.65;;
49978;SDS011;35869;50.990;6.962;2023-12-20T16:01:08;11.55;;;4.72;;
49978;SDS011;35869;50.990;6.962;2023-12-20T16:06:08;11.37;;;4.60;;
49978;SDS011;35869;50.990;6.962;2023-12-20T16:11:10;12.30;;;4.97;;
49978;SDS011;35869;50.990;6.962;2023-12-20T16:16:10;7.93;;;4.43;;
49978;SDS011;35869;50.990;6.962;2023-12-20T16:21:10;5.07;;;4.60;;
49978;SDS011;35869;50.990;6.962;2023-12-20T16:31:12;14.90;;;6.35;;
49978;SDS011;35869;50.990;6.962;2023-12-20T16:36:13;11.35;;;5.30;;
49978;SDS011;35869;50.990;6.962;2023-12-20T16:41:13;10.10;;;5.45;;
49978;SDS011;35869;50.990;6.962;2023-12-20T16:46:14;20.55;;;6.78;;
49978;SDS011;35869;50.990;6.962;2023-12-20T16:51:14;13.37;;;5.00;;
49978;SDS011;35869;50.990;6.962;2023-12-20T16:56:14;10.88;;;6.03;;
49978;SDS011;35869;50.990;6.962;2023-12-20T17:01:14;9.32;;;5.80;;
49978;SDS011;35869;50.990;6.962;2023-12-20T17:06:15;13.48;;;5.28;;
49978;SDS011;35869;50.990;6.962;2023-12-20T17:11:15;7.70;;;5.27;;
49978;SDS011;35869;50.990;6.962;2023-12-20T17:16:16;9.10;;;4.88;;
49978;SDS011;35869;50.990;6.962;2023-12-20T17:21:16;17.77;;;6.15;;
49978;SDS011;35869;50.990;6.962;2023-12-20T17:26:17;12.45;;;5.07;;
49978;SDS011;35869;50.990;6.962;2023-12-20T17:31:17;11.73;;;5.45;;
49978;SDS011;35869;50.990;6.962;2023-12-20T17:36:17;9.27;;;5.40;;
49978;SDS011;35869;50.990;6.962;2023-12-20T17:41:17;19.73;;;5.47;;
49978;SDS011;35869;50.990;6.962;2023-12-20T17:46:18;12.43;;;5.17;;
49978;SDS011;35869;50.990;6.962;2023-12-20T17:51:18;14.90;;;6.10;;
49978;SDS011;35869;50.990;6.962;2023-12-20T17:56:18;6.95;;;4.43;;
49978;SDS011;35869;50.990;6.962;2023-12-20T18:01:19;13.45;;;5.10;;
49978;SDS011;35869;50.990;6.962;2023-12-20T18:06:19;12.90;;;5.13;;
49978;SDS011;35869;50.990;6.962;2023-12-20T18:11:19;8.88;;;4.22;;
49978;SDS011;35869;50.990;6.962;2023-12-20T18:16:19;11.15;;;4.82;;
49978;SDS011;35869;50.990;6.962;2023-12-20T18:21:20;11.97;;;5.53;;
49978;SDS011;35869;50.990;6.962;2023-12-20T18:26:20;8.18;;;3.85;;
49978;SDS011;35869;50.990;6.962;2023-12-20T18:31:21;13.80;;;4.95;;
49978;SDS011;35869;50.990;6.962;2023-12-20T18:36:21;12.55;;;4.82;;
49978;SDS011;35869;50.990;6.962;2023-12-20T18:41:21;12.20;;;4.55;;
49978;SDS011;35869;50.990;6.962;2023-12-20T18:46:22;10.83;;;5.03;;
49978;SDS011;35869;50.990;6.962;2023-12-20T18:51:37;10.80;;;5.60;;
49978;SDS011;35869;50.990;6.962;2023-12-20T18:56:37;17.08;;;4.22;;
49978;SDS011;35869;50.990;6.962;2023-12-20T19:01:37;7.70;;;4.07;;
49978;SDS011;35869;50.990;6.962;2023-12-20T19:06:38;9.73;;;4.05;;
49978;SDS011;35869;50.990;6.962;2023-12-20T19:11:38;13.07;;;3.55;;
49978;SDS011;35869;50.990;6.962;2023-12-20T19:16:38;10.43;;;4.85;;
49978;SDS011;35869;50.990;6.962;2023-12-20T19:21:38;12.37;;;4.17;;
49978;SDS011;35869;50.990;6.962;2023-12-20T19:26:39;9.32;;;4.85;;
49978;SDS011;35869;50.990;6.962;2023-12-20T19:31:39;6.03;;;3.95;;
49978;SDS011;35869;50.990;6.962;2023-12-20T19:36:39;11.35;;;4.47;;
49978;SDS011;35869;50.990;6.962;2023-12-20T19:41:40;8.18;;;3.63;;
49978;SDS011;35869;50.990;6.962;2023-12-20T19:46:40;8.75;;;5.00;;
49978;SDS011;35869;50.990;6.962;2023-12-20T19:51:43;6.53;;;3.38;;
49978;SDS011;35869;50.990;6.962;2023-12-20T19:56:44;8.40;;;4.20;;
49978;SDS011;35869;50.990;6.962;2023-12-20T20:01:44;13.63;;;3.90;;
49978;SDS011;35869;50.990;6.962;2023-12-20T20:06:45;8.95;;;4.35;;
49978;SDS011;35869;50.990;6.962;2023-12-20T20:11:46;8.80;;;4.40;;
49978;SDS011;35869;50.990;6.962;2023-12-20T20:16:47;13.43;;;3.83;;
49978;SDS011;35869;50.990;6.962;2023-12-20T20:21:47;7.07;;;3.47;;
49978;SDS011;35869;50.990;6.962;2023-12-20T20:26:47;11.98;;;4.68;;
49978;SDS011;35869;50.990;6.962;2023-12-20T20:31:47;9.90;;;4.45;;
49978;SDS011;35869;50.990;6.962;2023-12-20T20:36:48;6.30;;;3.75;;
49978;SDS011;35869;50.990;6.962;2023-12-20T20:41:48;5.27;;;3.73;;
49978;SDS011;35869;50.990;6.962;2023-12-20T20:46:49;6.75;;;4.10;;
49978;SDS011;35869;50.990;6.962;2023-12-20T20:51:49;5.20;;;3.57;;
49978;SDS011;35869;50.990;6.962;2023-12-20T20:56:50;6.97;;;3.80;;
49978;SDS011;35869;50.990;6.962;2023-12-20T21:01:50;5.35;;;3.28;;
49978;SDS011;35869;50.990;6.962;2023-12-20T21:06:50;4.00;;;3.50;;
49978;SDS011;35869;50.990;6.962;2023-12-20T21:11:51;4.10;;;3.00;;
49978;SDS011;35869;50.990;6.962;2023-12-20T21:16:51;5.50;;;4.33;;
49978;SDS011;35869;50.990;6.962;2023-12-20T21:21:52;5.25;;;3.35;;
49978;SDS011;35869;50.990;6.962;2023-12-20T21:26:53;6.00;;;3.55;;
49978;SDS011;35869;50.990;6.962;2023-12-20T21:31:53;4.87;;;3.40;;
49978;SDS011;35869;50.990;6.962;2023-12-20T21:36:54;5.18;;;3.60;;
49978;SDS011;35869;50.990;6.962;2023-12-20T21:41:54;7.77;;;3.30;;
49978;SDS011;35869;50.990;6.962;2023-12-20T21:46:55;4.20;;;3.25;;
49978;SDS011;35869;50.990;6.962;2023-12-20T21:51:55;9.57;;;4.55;;
49978;SDS011;35869;50.990;6.962;2023-12-20T21:56:56;4.47;;;2.75;;
49978;SDS011;35869;50.990;6.962;2023-12-20T22:01:56;6.53;;;3.15;;
49978;SDS011;35869;50.990;6.962;2023-12-20T22:06:56;7.93;;;3.45;;
49978;SDS011;35869;50.990;6.962;2023-12-20T22:11:56;6.10;;;3.35;;
49978;SDS011;35869;50.990;6.962;2023-12-20T22:16:56;8.23;;;3.55;;
49978;SDS011;35869;50.990;6.962;2023-12-20T22:26:58;8.15;;;3.70;;
49978;SDS011;35869;50.990;6.962;2023-12-20T22:31:59;8.70;;;4.00;;
49978;SDS011;35869;50.990;6.962;2023-12-20T22:37:00;6.82;;;4.13;;
49978;SDS011;35869;50.990;6.962;2023-12-20T22:42:01;9.65;;;4.10;;
49978;SDS011;35869;50.990;6.962;2023-12-20T22:47:01;6.88;;;4.55;;
49978;SDS011;35869;50.990;6.962;2023-12-20T22:52:03;7.53;;;4.63;;
49978;SDS011;35869;50.990;6.962;2023-12-20T22:57:04;7.25;;;4.28;;
49978;SDS011;35869;50.990;6.962;2023-12-20T23:02:05;6.50;;;4.22;;
49978;SDS011;35869;50.990;6.962;2023-12-20T23:07:06;3.42;;;3.13;;
49978;SDS011;35869;50.990;6.962;2023-12-20T23:12:06;3.92;;;3.53;;
49978;SDS011;35869;50.990;6.962;2023-12-20T23:17:08;6.20;;;4.43;;
49978;SDS011;35869;50.990;6.962;2023-12-20T23:22:08;6.30;;;3.83;;
49978;SDS011;35869;50.990;6.962;2023-12-20T23:27:09;5.93;;;4.57;;
49978;SDS011;35869;50.990;6.962;2023-12-20T23:32:09;4.37;;;3.97;;
49978;SDS011;35869;50.990;6.962;2023-12-20T23:37:09;4.68;;;3.10;;
49978;SDS011;35869;50.990;6.962;2023-12-20T23:42:10;4.35;;;3.45;;
49978;SDS011;35869;50.990;6.962;2023-12-20T23:47:10;8.05;;;3.65;;
49978;SDS011;35869;50.990;6.962;2023-12-20T23:52:10;7.80;;;3.35;;
49978;SDS011;35869;50.990;6.962;2023-12-20T23:57:10;4.05;;;2.83;;
